Time;durP1;ratioP1;P1;durP2;ratioP2;P2;SDS_P1;SDS_P2;PMS_P1;PMS_P2;Temp;Humidity;BMP_temperature;BMP_pressure;BME280_temperature;BME280_humidity;BME280_pressure;Samples;Min_cycle;Max_cycle;Signal;HPM_P1;HPM_P2
2023/01/02 00:02:15;;;;;;;4.22;2.45;;;10.30;99.90;;;;;;5035448;28;20041;-67
2023/01/02 00:04:41;;;;;;;3.58;2.20;;;10.30;99.90;;;;;;5035308;28;20481;-67
2023/01/02 00:07:07;;;;;;;6.18;2.38;;;10.30;99.90;;;;;;5035429;28;20053;-67
2023/01/02 00:09:32;;;;;;;3.67;2.75;;;10.30;99.90;;;;;;5035350;28;20111;-68
2023/01/02 00:11:58;;;;;;;4.57;2.28;;;10.30;99.90;;;;;;5035328;28;20077;-67
2023/01/02 00:14:23;;;;;;;3.85;2.40;;;10.40;99.90;;;;;;5034849;28;20477;-67
2023/01/02 00:16:49;;;;;;;5.45;3.40;;;10.40;99.90;;;;;;5035271;28;20076;-67
2023/01/02 00:19:14;;;;;;;5.10;3.15;;;10.40;99.90;;;;;;5035195;28;20037;-67
2023/01/02 00:21:40;;;;;;;4.90;3.58;;;10.40;99.90;;;;;;5035217;28;20041;-67
2023/01/02 00:24:06;;;;;;;4.97;3.42;;;10.40;99.90;;;;;;5017087;28;20477;-67
2023/01/02 00:26:31;;;;;;;4.07;3.17;;;10.30;99.90;;;;;;5035098;28;20041;-67
2023/01/02 00:28:57;;;;;;;5.97;3.30;;;10.30;99.90;;;;;;5035039;28;20473;-68
2023/01/02 00:31:23;;;;;;;7.03;3.53;;;10.40;99.90;;;;;;5016905;28;20045;-67
2023/01/02 00:33:48;;;;;;;4.88;3.38;;;10.40;99.90;;;;;;5035008;28;20374;-67
2023/01/02 00:36:14;;;;;;;4.97;3.33;;;10.40;99.90;;;;;;5017321;28;20139;-67
2023/01/02 00:38:40;;;;;;;5.93;3.30;;;10.40;99.90;;;;;;5017117;28;20034;-67
2023/01/02 00:41:06;;;;;;;4.80;3.08;;;10.40;99.90;;;;;;5034566;28;20037;-67
2023/01/02 00:43:31;;;;;;;6.53;3.70;;;10.40;99.90;;;;;;5016825;28;20049;-67
2023/01/02 00:45:57;;;;;;;5.50;3.55;;;10.40;99.90;;;;;;5034726;28;20124;-67
2023/01/02 00:48:22;;;;;;;6.43;3.88;;;10.30;99.90;;;;;;5034373;28;20033;-67
2023/01/02 00:50:48;;;;;;;8.80;4.43;;;10.40;99.90;;;;;;5034578;28;20037;-67
2023/01/02 00:53:15;;;;;;;8.98;4.35;;;10.40;99.90;;;;;;5034365;28;20080;-67
2023/01/02 00:55:43;;;;;;;6.60;3.95;;;10.50;99.90;;;;;;5034156;28;20030;-67
2023/01/02 00:58:08;;;;;;;8.48;4.75;;;10.50;99.90;;;;;;5033978;28;20045;-67
2023/01/02 01:00:34;;;;;;;7.78;4.88;;;10.50;99.90;;;;;;5034506;28;20480;-67
2023/01/02 01:02:59;;;;;;;6.50;5.18;;;10.50;99.90;;;;;;5034440;28;20115;-67
2023/01/02 01:05:26;;;;;;;7.45;4.55;;;10.50;99.90;;;;;;5034128;28;20054;-67
2023/01/02 01:07:56;;;;;;;7.55;4.65;;;10.50;99.90;;;;;;5034408;28;20057;-67
2023/01/02 01:10:23;;;;;;;11.55;5.43;;;10.60;99.90;;;;;;5034155;28;20044;-67
2023/01/02 01:12:49;;;;;;;8.90;5.50;;;10.60;99.90;;;;;;5034157;28;20049;-67
2023/01/02 01:15:14;;;;;;;9.50;5.50;;;10.60;99.90;;;;;;5034199;28;20041;-67
2023/01/02 01:17:40;;;;;;;10.68;6.50;;;10.60;99.90;;;;;;5034174;28;20037;-67
2023/01/02 01:20:06;;;;;;;13.60;6.35;;;10.60;99.90;;;;;;5034131;28;20038;-67
2023/01/02 01:22:32;;;;;;;12.85;5.78;;;10.60;99.90;;;;;;5016173;28;20128;-67
2023/01/02 01:24:59;;;;;;;13.15;6.32;;;10.60;99.90;;;;;;5033983;28;20075;-68
2023/01/02 01:27:24;;;;;;;6.80;4.65;;;10.60;99.90;;;;;;5033931;28;20044;-67
2023/01/02 01:29:50;;;;;;;12.90;5.65;;;10.60;99.90;;;;;;5033861;28;20029;-67
2023/01/02 01:32:15;;;;;;;9.55;5.95;;;10.70;99.90;;;;;;5033832;28;20041;-68
2023/01/02 01:34:42;;;;;;;13.10;5.60;;;10.70;99.90;;;;;;5033832;28;20036;-67
2023/01/02 01:37:07;;;;;;;9.02;5.28;;;10.70;99.90;;;;;;5015825;28;20045;-67
2023/01/02 01:39:33;;;;;;;8.35;5.30;;;10.70;99.90;;;;;;5033684;28;20531;-67
2023/01/02 01:41:59;;;;;;;15.15;6.32;;;10.70;99.90;;;;;;5033379;28;20064;-67
2023/01/02 01:44:41;;;;;;;9.52;5.25;;;10.70;99.90;;;;;;5033654;28;20505;-67
2023/01/02 01:47:41;;;;;;;8.38;4.80;;;10.80;99.90;;;;;;5033617;28;20405;-67
2023/01/02 01:50:25;;;;;;;6.43;4.82;;;10.80;99.90;;;;;;4990530;28;20103;-67
2023/01/02 01:52:57;;;;;;;12.82;4.68;;;10.80;99.90;;;;;;5033488;28;20400;-67
2023/01/02 01:55:32;;;;;;;7.72;4.22;;;10.80;99.90;;;;;;5033128;28;20053;-68
2023/01/02 01:58:03;;;;;;;9.90;5.00;;;10.80;99.90;;;;;;5015559;28;20064;-67
2023/01/02 02:00:29;;;;;;;6.97;4.60;;;10.90;99.90;;;;;;5033367;28;20091;-67
2023/01/02 02:03:02;;;;;;;9.07;4.13;;;10.80;99.90;;;;;;5033422;28;20041;-67
2023/01/02 02:05:29;;;;;;;6.00;3.50;;;10.80;99.90;;;;;;5033060;28;20092;-68
2023/01/02 02:08:07;;;;;;;6.93;3.88;;;10.80;99.90;;;;;;5033120;28;20049;-67
2023/01/02 02:10:32;;;;;;;8.80;4.45;;;10.80;99.90;;;;;;5033206;28;20037;-69
2023/01/02 02:12:58;;;;;;;5.47;3.65;;;11.40;99.90;;;;;;5033287;28;20049;-67
2023/01/02 02:15:33;;;;;;;8.57;4.10;;;10.90;99.90;;;;;;5032915;28;20041;-67
2023/01/02 02:18:24;;;;;;;7.38;3.75;;;10.90;99.90;;;;;;5015478;28;20493;-67
2023/01/02 02:20:59;;;;;;;9.98;4.15;;;10.90;99.90;;;;;;5032898;28;20134;-68
2023/01/02 02:23:37;;;;;;;4.88;3.60;;;10.90;99.90;;;;;;5033069;28;20390;-68
2023/01/02 02:26:22;;;;;;;6.68;3.38;;;11.00;99.90;;;;;;5033067;28;20048;-67
2023/01/02 02:29:03;;;;;;;8.02;4.10;;;11.00;99.90;;;;;;5033082;28;20409;-67
2023/01/02 02:31:38;;;;;;;;;;;11.00;99.90;;;;;;5015378;28;20076;-67
2023/01/02 02:34:41;;;;;;;6.35;3.60;;;11.00;99.90;;;;;;5033039;28;19928;-67
2023/01/02 02:37:18;;;;;;;5.97;3.50;;;11.00;99.90;;;;;;5032460;28;20033;-67
2023/01/02 02:40:10;;;;;;;6.63;3.80;;;11.00;99.90;;;;;;5032993;28;20037;-68
2023/01/02 02:42:49;;;;;;;;;;;11.00;99.90;;;;;;4995881;28;20057;-67
2023/01/02 02:45:51;;;;;;;7.38;3.85;;;11.10;99.90;;;;;;5032672;28;20016;-68
2023/01/02 02:48:31;;;;;;;6.20;3.42;;;11.00;99.90;;;;;;5032458;28;20091;-67
2023/01/02 02:51:09;;;;;;;6.80;3.78;;;11.00;99.90;;;;;;5014845;28;20378;-67
2023/01/02 02:53:46;;;;;;;7.15;3.80;;;11.00;99.90;;;;;;5014832;28;20444;-67
2023/01/02 02:56:15;;;;;;;7.32;4.00;;;11.00;99.90;;;;;;5014883;28;20052;-67
2023/01/02 02:58:42;;;;;;;8.27;3.90;;;11.10;99.90;;;;;;5032833;28;20041;-67
2023/01/02 03:01:14;;;;;;;7.97;4.30;;;11.10;99.90;;;;;;5033093;28;20124;-67
2023/01/02 03:03:40;;;;;;;7.90;4.15;;;11.10;99.90;;;;;;5032766;28;20042;-66
2023/01/02 03:06:18;;;;;;;6.70;3.45;;;11.10;99.90;;;;;;5032373;28;20096;-67
2023/01/02 03:08:55;;;;;;;7.35;4.38;;;11.20;99.90;;;;;;5032382;28;20519;-66
2023/01/02 03:11:34;;;;;;;6.93;3.88;;;11.10;99.90;;;;;;5032581;28;20038;-66
2023/01/02 03:14:15;;;;;;;6.68;4.05;;;11.10;99.90;;;;;;5032618;28;20405;-67
2023/01/02 03:16:44;;;;;;;8.95;3.60;;;11.10;99.90;;;;;;5015041;28;20041;-66
2023/01/02 03:19:20;;;;;;;8.45;3.67;;;11.10;99.90;;;;;;5032666;28;20056;-66
2023/01/02 03:21:59;;;;;;;6.55;4.13;;;11.10;99.90;;;;;;5018353;28;20046;-66
2023/01/02 03:24:27;;;;;;;6.95;4.25;;;11.70;99.90;;;;;;5036264;28;20116;-66
2023/01/02 03:26:59;;;;;;;7.10;3.63;;;11.10;99.90;;;;;;5018495;28;20045;-66
2023/01/02 03:29:44;;;;;;;6.00;3.80;;;11.10;99.90;;;;;;5035801;28;20045;-66
2023/01/02 03:32:16;;;;;;;7.80;3.75;;;11.10;99.90;;;;;;5035823;28;20284;-66
2023/01/02 03:34:45;;;;;;;5.18;3.30;;;11.20;99.90;;;;;;5018398;28;20030;-66
2023/01/02 03:37:18;;;;;;;7.63;3.70;;;11.20;99.90;;;;;;5035952;28;20045;-66
2023/01/02 03:39:53;;;;;;;10.45;3.60;;;11.20;99.90;;;;;;5018233;28;20163;-66
2023/01/02 03:42:27;;;;;;;4.53;2.90;;;11.20;99.90;;;;;;5035927;28;20052;-66
2023/01/02 03:45:11;;;;;;;5.43;3.05;;;11.20;99.90;;;;;;5035889;28;20049;-66
2023/01/02 03:47:44;;;;;;;5.13;3.08;;;11.20;99.90;;;;;;5035836;28;20049;-66
2023/01/02 03:50:22;;;;;;;7.20;3.70;;;11.20;99.90;;;;;;5035693;28;20073;-66
2023/01/02 03:52:47;;;;;;;5.65;2.70;;;11.20;99.90;;;;;;5017776;28;20044;-66
2023/01/02 03:55:13;;;;;;;7.05;3.15;;;11.20;99.90;;;;;;5017705;28;20482;-66
2023/01/02 03:57:39;;;;;;;5.07;3.55;;;11.20;99.90;;;;;;5035603;28;20037;-66
2023/01/02 04:00:10;;;;;;;5.70;3.25;;;11.20;99.90;;;;;;5035387;28;20049;-66
2023/01/02 04:02:54;;;;;;;;;;;11.20;99.90;;;;;;5036013;28;20139;-66
2023/01/02 04:05:47;;;;;;;5.57;3.13;;;11.20;99.90;;;;;;5030711;28;20308;-66
2023/01/02 04:08:21;;;;;;;4.75;3.10;;;11.20;99.90;;;;;;5007067;28;20042;-66
2023/01/02 04:10:50;;;;;;;6.05;3.17;;;11.20;99.90;;;;;;5015599;28;20041;-66
2023/01/02 04:13:20;;;;;;;9.00;2.83;;;11.20;99.90;;;;;;5015673;28;20042;-67
2023/01/02 04:15:48;;;;;;;4.80;3.15;;;11.20;99.90;;;;;;5015625;28;20037;-66
2023/01/02 04:18:23;;;;;;;5.95;3.85;;;11.20;99.90;;;;;;5015549;28;20397;-66
2023/01/02 04:20:52;;;;;;;7.95;2.88;;;11.20;99.90;;;;;;5014201;28;20049;-66
2023/01/02 04:23:27;;;;;;;7.85;3.55;;;11.70;99.90;;;;;;5015392;28;20052;-67
2023/01/02 04:26:11;;;;;;;10.13;3.67;;;11.20;99.90;;;;;;5015435;28;20118;-66
2023/01/02 04:28:37;;;;;;;4.88;3.00;;;11.20;99.90;;;;;;5015353;28;20046;-66
2023/01/02 04:31:19;;;;;;;6.40;3.92;;;11.20;99.90;;;;;;5013591;28;20073;-66
2023/01/02 04:33:48;;;;;;;5.97;3.40;;;11.20;99.90;;;;;;5015218;28;20130;-66
2023/01/02 04:36:15;;;;;;;7.80;3.58;;;11.20;99.90;;;;;;5015208;28;20398;-67
2023/01/02 04:38:42;;;;;;;4.22;2.83;;;11.30;99.90;;;;;;5015120;28;20366;-66
2023/01/02 04:41:11;;;;;;;4.82;3.22;;;11.20;99.90;;;;;;5014755;28;20042;-67
2023/01/02 04:43:36;;;;;;;10.57;3.97;;;11.20;99.90;;;;;;5014665;28;20041;-67
2023/01/02 04:46:02;;;;;;;8.15;3.30;;;11.30;99.90;;;;;;5013448;28;20088;-66
2023/01/02 04:48:27;;;;;;;6.78;3.30;;;11.30;99.90;;;;;;5014815;28;20040;-66
2023/01/02 04:50:54;;;;;;;5.75;2.92;;;11.30;99.90;;;;;;5014818;28;20542;-66
2023/01/02 04:53:19;;;;;;;9.05;3.63;;;11.40;99.90;;;;;;5014858;28;20490;-66
2023/01/02 04:55:45;;;;;;;5.50;4.03;;;11.40;99.90;;;;;;5013306;28;20073;-66
2023/01/02 04:58:11;;;;;;;10.07;2.80;;;11.40;99.90;;;;;;5014786;28;20481;-66
2023/01/02 05:00:36;;;;;;;11.50;3.90;;;11.10;99.90;;;;;;5014631;28;20037;-66
2023/01/02 05:03:03;;;;;;;5.72;3.50;;;11.30;99.90;;;;;;5013239;28;20037;-66
2023/01/02 05:05:29;;;;;;;5.25;3.30;;;;;;;;;;5023068;28;20098;-66
2023/01/02 05:07:56;;;;;;;4.53;2.53;;;11.40;99.90;;;;;;5034072;28;20093;-66
2023/01/02 05:10:21;;;;;;;7.30;2.88;;;11.40;99.90;;;;;;5034192;28;20037;-66
2023/01/02 05:12:47;;;;;;;6.10;3.13;;;11.50;99.90;;;;;;5016524;28;20447;-67
2023/01/02 05:15:12;;;;;;;5.90;3.20;;;11.50;99.90;;;;;;5033918;28;20033;-68
2023/01/02 05:17:40;;;;;;;10.25;3.38;;;11.40;99.90;;;;;;5016145;28;20095;-67
2023/01/02 05:20:09;;;;;;;9.13;3.45;;;11.50;99.90;;;;;;5033997;28;20436;-66
2023/01/02 05:25:23;;;;;;;4.07;2.75;;;11.50;99.90;;;;;;5016231;28;20085;-70
2023/01/02 05:27:52;;;;;;;4.57;2.80;;;12.10;99.90;;;;;;5034001;28;20053;-67
2023/01/02 05:30:17;;;;;;;5.57;2.92;;;11.50;99.90;;;;;;5033891;28;20034;-67
2023/01/02 05:32:43;;;;;;;4.30;2.95;;;11.50;99.90;;;;;;5033842;28;20047;-67
2023/01/02 05:35:08;;;;;;;7.35;2.55;;;11.60;99.90;;;;;;5033838;28;20099;-72
2023/01/02 05:37:34;;;;;;;3.90;2.45;;;11.60;99.90;;;;;;5016156;28;20037;-67
2023/01/02 05:40:00;;;;;;;4.93;3.13;;;11.60;99.90;;;;;;5033512;28;20045;-67
2023/01/02 05:42:25;;;;;;;6.97;3.38;;;11.50;99.90;;;;;;5015607;28;20053;-67
2023/01/02 05:44:51;;;;;;;5.63;2.22;;;11.60;99.90;;;;;;5033654;28;20044;-66
2023/01/02 05:47:17;;;;;;;6.22;2.92;;;11.60;99.90;;;;;;5033628;28;20041;-69
2023/01/02 05:49:42;;;;;;;7.00;3.10;;;11.60;99.90;;;;;;5033523;28;20120;-67
2023/01/02 05:52:08;;;;;;;4.15;2.38;;;11.60;99.90;;;;;;5033528;28;20523;-67
2023/01/02 05:54:33;;;;;;;3.80;2.75;;;11.60;99.90;;;;;;5033194;28;20452;-67
2023/01/02 05:56:59;;;;;;;4.85;3.47;;;11.60;99.90;;;;;;5033174;28;20048;-67
2023/01/02 05:59:24;;;;;;;3.67;2.40;;;11.60;99.90;;;;;;5033381;28;20046;-67
2023/01/02 06:01:50;;;;;;;5.53;2.83;;;11.70;99.90;;;;;;5033329;28;20048;-68
2023/01/02 06:04:15;;;;;;;5.00;3.03;;;11.60;99.90;;;;;;5033329;28;20400;-67
2023/01/02 06:06:41;;;;;;;4.45;2.88;;;11.50;99.90;;;;;;5032937;28;20054;-66
2023/01/02 06:09:10;;;;;;;3.60;2.45;;;11.60;99.90;;;;;;5033392;28;20390;-67
2023/01/02 06:11:36;;;;;;;3.97;2.80;;;11.70;99.90;;;;;;5015371;28;20029;-67
2023/01/02 06:14:02;;;;;;;4.82;2.70;;;12.10;99.90;;;;;;5033162;28;20044;-67
2023/01/02 06:16:27;;;;;;;2.58;2.17;;;11.70;99.90;;;;;;5033260;28;20447;-67
2023/01/02 06:18:53;;;;;;;9.40;2.75;;;11.60;99.90;;;;;;5015212;28;20077;-66
2023/01/02 06:21:20;;;;;;;4.35;2.60;;;11.60;99.90;;;;;;5033210;28;20412;-66
2023/01/02 06:23:47;;;;;;;4.60;2.80;;;11.70;99.90;;;;;;5033176;28;20049;-66
2023/01/02 06:26:15;;;;;;;7.53;2.83;;;11.70;99.90;;;;;;5032990;28;20129;-66
2023/01/02 06:28:42;;;;;;;5.97;3.00;;;11.70;99.90;;;;;;5032975;28;20128;-66
2023/01/02 06:31:13;;;;;;;6.30;2.55;;;11.70;99.90;;;;;;5033001;28;20037;-66
2023/01/02 06:33:39;;;;;;;8.43;2.90;;;12.00;99.90;;;;;;5032990;28;20071;-67
2023/01/02 06:36:10;;;;;;;4.55;2.67;;;11.70;99.90;;;;;;5033036;28;20370;-66
2023/01/02 06:38:36;;;;;;;4.68;2.50;;;11.70;99.90;;;;;;5015042;28;20121;-66
2023/01/02 06:41:04;;;;;;;6.55;3.50;;;11.70;99.90;;;;;;5032939;28;20041;-67
2023/01/02 06:43:30;;;;;;;5.00;3.05;;;11.70;99.90;;;;;;5032966;28;20048;-68
2023/01/02 06:46:00;;;;;;;6.80;2.10;;;11.70;99.90;;;;;;5032988;28;20037;-68
2023/01/02 06:48:26;;;;;;;4.80;2.20;;;11.70;99.90;;;;;;5032905;28;20038;-70
2023/01/02 06:50:52;;;;;;;4.43;2.70;;;11.80;99.90;;;;;;5015004;28;20033;-67
2023/01/02 06:53:17;;;;;;;4.28;2.60;;;11.70;99.90;;;;;;5032848;28;20065;-67
2023/01/02 06:55:54;;;;;;;8.05;2.47;;;11.70;99.90;;;;;;5035738;28;20034;-67
2023/01/02 06:58:20;;;;;;;4.50;2.60;;;11.70;99.90;;;;;;5036770;28;20042;-71
2023/01/02 07:00:46;;;;;;;4.25;2.45;;;11.70;99.90;;;;;;5002725;28;20052;-66
2023/01/02 07:03:12;;;;;;;5.55;2.80;;;11.70;99.90;;;;;;5036701;28;20412;-67
2023/01/02 07:05:39;;;;;;;5.40;2.65;;;11.60;99.90;;;;;;5036376;28;20061;-67
2023/01/02 07:08:04;;;;;;;5.57;2.70;;;11.70;99.90;;;;;;5036614;28;20050;-72
2023/01/02 07:10:30;;;;;;;5.97;3.40;;;11.50;99.90;;;;;;5002126;28;20049;-67
2023/01/02 07:12:56;;;;;;;5.35;2.17;;;11.70;99.90;;;;;;5036471;28;20042;-66
2023/01/02 07:15:22;;;;;;;5.60;2.40;;;11.70;99.90;;;;;;5036506;28;20479;-66
2023/01/02 07:17:47;;;;;;;2.78;2.10;;;11.60;99.90;;;;;;5036402;28;20129;-66
2023/01/02 07:20:13;;;;;;;2.50;2.03;;;11.60;99.90;;;;;;5036380;28;20095;-66
2023/01/02 07:22:38;;;;;;;2.95;1.77;;;11.60;99.90;;;;;;5018612;28;20049;-67
2023/01/02 07:25:05;;;;;;;1.85;1.30;;;11.60;99.90;;;;;;5035929;28;20041;-66
2023/01/02 07:27:31;;;;;;;1.58;1.13;;;11.50;99.90;;;;;;5018229;28;20041;-67
2023/01/02 07:29:56;;;;;;;1.48;0.95;;;11.40;99.90;;;;;;5018178;28;20063;-67
2023/01/02 07:32:22;;;;;;;2.20;1.20;;;11.40;99.90;;;;;;5018307;28;20048;-67
2023/01/02 07:34:48;;;;;;;1.73;1.00;;;11.30;99.90;;;;;;5036129;28;20065;-66
2023/01/02 07:37:14;;;;;;;1.13;0.73;;;11.20;99.90;;;;;;5036001;28;20503;-67
2023/01/02 07:39:39;;;;;;;1.13;0.65;;;11.10;99.90;;;;;;5036085;28;20116;-67
2023/01/02 07:42:05;;;;;;;1.10;0.70;;;11.00;99.90;;;;;;5036016;28;20418;-68
2023/01/02 07:44:31;;;;;;;0.60;0.60;;;10.90;99.90;;;;;;5035578;28;20152;-67
2023/01/02 07:46:56;;;;;;;1.08;0.70;;;10.70;99.90;;;;;;5017698;28;20037;-67
2023/01/02 07:49:22;;;;;;;0.85;0.68;;;10.70;99.90;;;;;;5035776;28;20038;-67
2023/01/02 07:51:48;;;;;;;1.27;1.00;;;10.50;99.90;;;;;;5035684;28;20041;-67
2023/01/02 07:54:13;;;;;;;1.33;0.95;;;10.50;99.90;;;;;;5035631;28;20033;-66
2023/01/02 07:56:39;;;;;;;2.03;1.10;;;10.80;99.90;;;;;;5035639;28;20061;-67
2023/01/02 07:59:07;;;;;;;1.13;0.95;;;10.80;99.90;;;;;;5035593;28;20489;-68
2023/01/02 08:01:33;;;;;;;1.75;1.20;;;;;;;;;;5035092;28;20120;-67
2023/01/02 08:03:59;;;;;;;2.35;1.45;;;10.30;99.90;;;;;;5035451;28;20096;-67
2023/01/02 08:06:24;;;;;;;2.72;1.52;;;10.30;99.90;;;;;;5034670;28;20045;-67
2023/01/02 08:08:50;;;;;;;3.03;1.67;;;10.20;99.90;;;;;;5035399;28;20103;-67
2023/01/02 08:11:20;;;;;;;2.40;1.40;;;10.10;99.90;;;;;;5035233;28;20044;-67
2023/01/02 08:13:46;;;;;;;2.72;1.33;;;10.00;99.90;;;;;;5035303;28;20108;-67
2023/01/02 08:16:14;;;;;;;2.13;1.33;;;;;;;;;;5035189;28;20072;-67
2023/01/02 08:18:40;;;;;;;2.53;1.58;;;;;;;;;;5035219;28;20056;-67
2023/01/02 08:21:05;;;;;;;2.10;1.17;;;9.90;99.90;;;;;;5017203;28;20041;-67
2023/01/02 08:23:32;;;;;;;1.48;1.00;;;9.60;99.90;;;;;;5035141;28;20381;-67
2023/01/02 08:26:03;;;;;;;1.90;1.10;;;9.70;99.90;;;;;;5017091;28;20049;-67
2023/01/02 08:28:29;;;;;;;;;;;9.50;99.90;;;;;;5035134;28;20045;-66
2023/01/02 08:30:55;;;;;;;1.48;0.90;;;9.40;99.90;;;;;;5034710;28;19917;-66
2023/01/02 08:33:21;;;;;;;1.08;0.60;;;10.10;99.90;;;;;;5017181;28;20397;-67
2023/01/02 08:35:47;;;;;;;3.40;1.02;;;9.20;99.90;;;;;;5035027;28;20040;-67
2023/01/02 08:38:13;;;;;;;2.15;1.10;;;9.20;99.90;;;;;;5034887;28;20469;-67
2023/01/02 08:40:38;;;;;;;0.70;0.65;;;9.10;99.90;;;;;;5034917;28;20535;-67
2023/01/02 08:43:06;;;;;;;3.67;0.70;;;9.10;99.90;;;;;;5017111;28;20045;-67
2023/01/02 08:45:32;;;;;;;1.35;0.60;;;9.00;99.90;;;;;;5016762;28;20128;-66
2023/01/02 08:47:58;;;;;;;0.65;0.52;;;8.90;99.90;;;;;;5034752;28;20133;-66
2023/01/02 08:50:24;;;;;;;1.48;0.82;;;8.90;99.90;;;;;;5016664;28;20060;-67
2023/01/02 08:52:49;;;;;;;0.90;0.60;;;8.80;99.90;;;;;;5034717;28;20077;-68
2023/01/02 08:55:15;;;;;;;1.23;0.65;;;8.80;99.90;;;;;;5034416;28;20030;-66
2023/01/02 08:57:40;;;;;;;0.60;0.30;;;8.70;99.90;;;;;;5034540;28;20107;-66
2023/01/02 09:00:07;;;;;;;1.05;0.60;;;8.70;99.90;;;;;;5034575;28;20041;-66
2023/01/02 09:02:32;;;;;;;0.57;0.40;;;8.70;99.90;;;;;;5034488;28;20038;-66
2023/01/02 09:04:58;;;;;;;1.35;0.60;;;8.70;99.90;;;;;;5034262;28;20061;-66
2023/01/02 09:07:24;;;;;;;0.20;0.20;;;8.70;99.90;;;;;;5000198;28;20516;-67
2023/01/02 09:09:50;;;;;;;0.90;0.50;;;8.70;99.90;;;;;;5016317;28;20164;-66
2023/01/02 09:12:16;;;;;;;1.35;0.63;;;8.60;99.90;;;;;;5034284;28;20096;-67
2023/01/02 09:14:41;;;;;;;0.63;0.43;;;8.60;99.90;;;;;;5034245;28;20066;-66
2023/01/02 09:17:07;;;;;;;0.57;0.47;;;8.60;99.90;;;;;;5033493;28;20488;-67
2023/01/02 09:19:33;;;;;;;1.27;0.57;;;8.60;99.90;;;;;;5034022;28;20038;-66
2023/01/02 09:22:00;;;;;;;1.88;0.82;;;8.60;99.90;;;;;;5033965;28;20443;-67
2023/01/02 09:24:26;;;;;;;1.33;0.50;;;8.50;99.90;;;;;;5034122;28;20485;-67
2023/01/02 09:26:52;;;;;;;2.13;0.50;;;8.60;99.90;;;;;;5033825;28;20037;-67
2023/01/02 09:29:18;;;;;;;1.67;0.98;;;8.60;99.90;;;;;;4999587;28;20475;-66
2023/01/02 09:31:44;;;;;;;0.65;0.47;;;8.60;99.90;;;;;;5015641;28;20132;-67
2023/01/02 09:34:10;;;;;;;0.88;0.52;;;8.50;99.90;;;;;;5015921;28;20128;-67
2023/01/02 09:36:36;;;;;;;1.23;0.68;;;8.50;99.90;;;;;;5015764;28;20072;-66
2023/01/02 09:39:03;;;;;;;0.70;0.52;;;8.50;99.90;;;;;;5033455;28;20076;-67
2023/01/02 09:41:39;;;;;;;1.27;0.90;;;8.60;99.90;;;;;;5016024;28;20053;-67
2023/01/02 09:44:10;;;;;;;2.10;0.90;;;8.50;99.90;;;;;;5033722;28;20095;-67
2023/01/02 09:46:41;;;;;;;1.67;0.95;;;8.50;99.90;;;;;;5033667;28;20378;-68
2023/01/02 09:49:12;;;;;;;0.90;0.65;;;8.60;99.90;;;;;;5033589;28;20041;-67
2023/01/02 09:51:38;;;;;;;1.38;0.73;;;9.40;99.90;;;;;;4999201;28;20053;-67
2023/01/02 09:54:12;;;;;;;0.90;0.50;;;8.60;99.90;;;;;;5033485;28;20042;-67
2023/01/02 09:56:40;;;;;;;2.75;0.80;;;8.60;99.90;;;;;;5033596;28;20048;-67
2023/01/02 09:59:15;;;;;;;0.50;0.35;;;8.50;99.90;;;;;;5033171;28;20077;-67
2023/01/02 10:01:58;;;;;;;1.95;0.77;;;8.50;99.90;;;;;;5033399;28;20116;-68
2023/01/02 10:04:52;;;;;;;1.00;0.70;;;8.60;99.90;;;;;;5033403;28;20041;-68
2023/01/02 10:07:31;;;;;;;1.08;0.70;;;8.50;99.90;;;;;;5033054;28;20057;-68
2023/01/02 10:10:14;;;;;;;1.92;0.80;;;8.50;99.90;;;;;;5033219;28;20038;-67
2023/01/02 10:12:56;;;;;;;1.98;0.82;;;8.60;99.90;;;;;;5033285;28;20037;-68
2023/01/02 10:15:26;;;;;;;1.30;0.77;;;8.50;99.90;;;;;;5033051;28;20104;-69
2023/01/02 10:17:57;;;;;;;1.02;0.65;;;8.60;99.90;;;;;;5033225;28;20034;-68
2023/01/02 10:20:29;;;;;;;2.40;1.13;;;8.60;99.90;;;;;;5033150;28;20511;-68
2023/01/02 10:23:08;;;;;;;1.70;0.73;;;8.60;99.90;;;;;;5033163;28;20046;-68
2023/01/02 10:25:44;;;;;;;2.47;0.80;;;9.30;99.90;;;;;;5032814;28;20049;-68
2023/01/02 10:28:15;;;;;;;1.10;0.52;;;8.70;99.90;;;;;;5033037;28;20037;-68
2023/01/02 10:30:49;;;;;;;1.63;0.80;;;8.70;99.90;;;;;;5032951;28;20393;-68
2023/01/02 10:33:21;;;;;;;3.22;1.00;;;8.70;99.90;;;;;;5015307;28;20492;-68
2023/01/02 10:35:53;;;;;;;3.25;1.02;;;8.70;99.90;;;;;;5032763;28;20119;-67
2023/01/02 10:38:19;;;;;;;1.52;0.80;;;8.70;99.90;;;;;;5032998;28;20060;-68
2023/01/02 10:40:47;;;;;;;3.45;1.00;;;8.70;99.90;;;;;;5014942;28;20045;-68
2023/01/02 10:43:14;;;;;;;2.13;0.85;;;8.70;99.90;;;;;;5015160;28;20095;-68
2023/01/02 10:45:40;;;;;;;1.50;0.63;;;8.70;99.90;;;;;;5032782;28;20127;-67
2023/01/02 10:48:09;;;;;;;1.48;0.80;;;8.60;99.90;;;;;;5032498;28;20091;-68
2023/01/02 10:50:47;;;;;;;0.65;0.47;;;8.70;99.90;;;;;;5014713;28;20127;-68
2023/01/02 10:53:20;;;;;;;1.27;0.60;;;8.60;99.90;;;;;;5032692;28;20045;-68
2023/01/02 10:55:46;;;;;;;4.68;0.70;;;8.60;99.90;;;;;;5014746;28;20404;-68
2023/01/02 10:58:26;;;;;;;0.70;0.30;;;8.60;99.90;;;;;;5032645;28;20516;-68
2023/01/02 11:01:17;;;;;;;1.58;0.57;;;8.60;99.90;;;;;;5032704;28;20409;-68
2023/01/02 11:03:47;;;;;;;0.60;0.40;;;8.60;99.90;;;;;;5032490;28;20050;-71
2023/01/02 11:06:29;;;;;;;0.63;0.38;;;8.60;99.90;;;;;;5014560;28;20045;-67
2023/01/02 11:09:14;;;;;;;1.20;0.65;;;8.70;99.90;;;;;;5014758;28;20072;-67
2023/01/02 11:11:49;;;;;;;1.48;0.60;;;8.70;99.90;;;;;;5032444;28;20037;-68
2023/01/02 11:14:14;;;;;;;1.20;0.52;;;8.70;99.90;;;;;;5032674;28;20042;-67
2023/01/02 11:16:40;;;;;;;0.98;0.65;;;8.70;99.90;;;;;;5032649;28;20437;-67
2023/01/02 11:19:20;;;;;;;3.47;0.68;;;8.80;99.90;;;;;;5014824;28;20404;-67
2023/01/02 11:21:47;;;;;;;2.10;0.80;;;8.80;99.90;;;;;;5032672;28;20547;-68
2023/01/02 11:24:18;;;;;;;0.75;0.32;;;8.90;99.90;;;;;;5032304;28;20045;-67
2023/01/02 11:26:47;;;;;;;1.02;0.43;;;8.90;99.90;;;;;;5032643;28;20121;-68
2023/01/02 11:29:21;;;;;;;0.93;0.60;;;8.90;99.90;;;;;;5014583;28;20055;-68
2023/01/02 11:31:50;;;;;;;1.40;0.65;;;9.30;99.90;;;;;;5014484;28;20037;-68
2023/01/02 11:34:53;;;;;;;0.45;0.45;;;9.00;99.90;;;;;;5032441;28;20454;-68
2023/01/02 11:37:19;;;;;;;3.50;0.68;;;9.00;99.90;;;;;;5020123;28;20041;-68
2023/01/02 11:40:00;;;;;;;1.00;0.60;;;9.00;99.90;;;;;;5014501;28;20556;-68
2023/01/02 11:45:21;;;;;;;1.75;0.77;;;8.90;99.90;;;;;;5017857;28;20085;-68
2023/01/02 11:47:54;;;;;;;0.93;0.50;;;8.90;99.90;;;;;;5035916;28;20130;-67
2023/01/02 11:50:28;;;;;;;2.47;0.60;;;8.90;99.90;;;;;;5035540;28;20489;-67
2023/01/02 11:52:58;;;;;;;0.73;0.55;;;8.80;99.90;;;;;;5035882;28;20049;-67
2023/01/02 11:55:33;;;;;;;2.15;0.52;;;9.30;99.90;;;;;;5017868;28;20046;-67
2023/01/02 11:58:24;;;;;;;1.52;0.60;;;8.80;99.90;;;;;;5036000;28;20042;-67
2023/01/02 12:01:10;;;;;;;5.78;0.70;;;8.80;99.90;;;;;;4981136;28;20145;-66
2023/01/02 12:03:35;;;;;;;1.98;0.73;;;8.80;99.90;;;;;;5035601;28;20042;-67
2023/01/02 12:06:08;;;;;;;1.38;1.02;;;8.80;99.90;;;;;;5035150;28;20061;-67
2023/01/02 12:08:42;;;;;;;4.53;1.00;;;8.80;99.90;;;;;;5035538;28;20045;-66
2023/01/02 12:11:28;;;;;;;3.33;0.90;;;8.90;99.90;;;;;;5035086;28;20041;-67
2023/01/02 12:13:59;;;;;;;2.85;0.82;;;8.80;99.90;;;;;;4978012;28;20053;-67
2023/01/02 12:16:30;;;;;;;3.58;0.88;;;8.80;99.90;;;;;;5017616;28;20123;-67
2023/01/02 12:19:11;;;;;;;0.43;0.40;;;9.00;99.90;;;;;;5035127;28;20489;-67
2023/01/02 12:21:48;;;;;;;;;;;9.00;99.90;;;;;;5018042;28;20400;-67
2023/01/02 12:24:39;;;;;;;1.30;0.57;;;9.10;99.90;;;;;;5035210;28;19916;-67
2023/01/02 12:27:37;;;;;;;1.58;0.80;;;9.10;99.90;;;;;;5017216;28;20056;-67
2023/01/02 12:30:19;;;;;;;1.45;0.70;;;9.10;99.90;;;;;;5034905;28;20485;-67
2023/01/02 12:32:53;;;;;;;3.10;0.70;;;9.10;99.90;;;;;;5017153;28;20447;-67
2023/01/02 12:35:51;;;;;;;2.40;0.70;;;9.00;99.90;;;;;;5035042;28;20442;-67
2023/01/02 12:38:26;;;;;;;5.55;1.05;;;9.00;99.90;;;;;;5034924;28;20045;-68
2023/01/02 12:41:09;;;;;;;5.63;1.00;;;8.90;99.90;;;;;;5016912;28;20041;-67
2023/01/02 12:43:47;;;;;;;0.95;0.50;;;8.90;99.90;;;;;;5000951;28;20053;-67
2023/01/02 12:46:31;;;;;;;6.35;0.60;;;8.90;99.90;;;;;;5000538;28;20045;-70
2023/01/02 12:49:21;;;;;;;3.33;0.60;;;8.90;99.90;;;;;;5016814;28;20107;-67
2023/01/02 12:52:08;;;;;;;0.65;0.40;;;9.00;99.90;;;;;;5033826;28;20038;-67
2023/01/02 12:54:56;;;;;;;1.73;0.80;;;9.00;99.90;;;;;;5034715;28;20052;-67
2023/01/02 12:57:28;;;;;;;4.65;0.88;;;9.10;99.90;;;;;;5034595;28;20042;-67
2023/01/02 13:00:21;;;;;;;1.63;0.85;;;9.10;99.90;;;;;;5016937;28;20041;-67
2023/01/02 13:03:12;;;;;;;2.38;0.90;;;9.10;99.90;;;;;;5034626;28;20168;-67
2023/01/02 13:05:51;;;;;;;5.78;0.90;;;9.00;99.90;;;;;;5003652;28;20052;-67
2023/01/02 13:08:30;;;;;;;2.45;1.23;;;9.00;99.90;;;;;;5034094;28;20048;-67
2023/01/02 13:11:02;;;;;;;4.10;1.10;;;9.00;99.90;;;;;;5034250;28;20366;-67
2023/01/02 13:13:33;;;;;;;0.95;0.60;;;9.00;99.90;;;;;;5000296;28;20045;-67
2023/01/02 13:16:04;;;;;;;2.78;0.85;;;9.00;99.90;;;;;;5016575;28;20037;-67
2023/01/02 13:19:07;;;;;;;1.63;0.68;;;9.00;99.90;;;;;;5034273;28;20506;-67